Time;durP1;ratioP1;P1;durP2;ratioP2;P2;SDS_P1;SDS_P2;PMS_P1;PMS_P2;Temp;Humidity;BMP_temperature;BMP_pressure;BME280_temperature;BME280_humidity;BME280_pressure;Samples;Min_cycle;Max_cycle;Signal;HPM_P1;HPM_P2
2023/01/17 00:00:22;;;;;;;1.20;1.05;;;2.40;11.50;;;;;;7378319;19;20027;-80
2023/01/17 00:02:54;;;;;;;2.55;1.33;;;2.40;11.60;;;;;;7357811;19;20460;-79
2023/01/17 00:11:04;;;;;;;2.20;1.70;;;2.30;10.90;;;;;;7361656;19;20014;-79
2023/01/17 00:13:34;;;;;;;2.20;1.60;;;2.30;10.90;;;;;;7365369;19;20081;-78
2023/01/17 00:16:04;;;;;;;3.08;1.50;;;2.30;10.00;;;;;;7368309;19;20078;-77
2023/01/17 00:18:34;;;;;;;6.25;1.95;;;2.30;9.20;;;;;;7380997;19;20006;-81
2023/01/17 00:26:33;;;;;;;2.05;1.35;;;2.30;8.10;;;;;;7360852;19;20018;-81
2023/01/17 01:35:34;;;;;;;2.20;1.23;;;2.80;1.00;;;;;;7362365;19;20033;-79
2023/01/17 01:38:04;;;;;;;2.65;1.13;;;2.70;1.00;;;;;;7366119;19;20018;-78
2023/01/17 01:40:34;;;;;;;3.95;1.30;;;2.70;1.00;;;;;;7362820;19;20010;-78
2023/01/17 01:43:12;;;;;;;5.28;1.50;;;2.60;1.00;;;;;;7363655;19;20389;-78
2023/01/17 01:45:46;;;;;;;3.05;1.30;;;2.70;1.00;;;;;;7361584;19;20085;-79
2023/01/17 01:48:29;;;;;;;2.92;1.60;;;2.60;1.00;;;;;;7382953;19;20460;-78
2023/01/17 01:50:59;;;;;;;2.20;1.40;;;2.60;1.00;;;;;;7360975;19;20017;-78
2023/01/17 01:53:30;;;;;;;2.53;1.67;;;2.60;1.00;;;;;;7362979;19;20014;-78
2023/01/17 01:56:01;;;;;;;2.10;1.40;;;2.70;1.00;;;;;;7362345;19;20074;-79
2023/01/17 01:58:36;;;;;;;3.70;1.52;;;2.70;1.00;;;;;;7360895;19;20015;-78
2023/01/17 02:01:08;;;;;;;2.90;1.40;;;2.70;1.00;;;;;;7362109;19;20021;-79
2023/01/17 02:03:41;;;;;;;2.65;1.88;;;2.70;1.00;;;;;;7364682;19;20922;-79
2023/01/17 02:06:22;;;;;;;3.30;1.45;;;2.80;1.00;;;;;;7383398;19;20038;-79
2023/01/17 02:08:52;;;;;;;7.35;1.50;;;2.80;1.00;;;;;;7363187;19;20010;-78
2023/01/17 02:11:23;;;;;;;3.47;1.30;;;2.80;1.00;;;;;;7360563;19;20463;-78
2023/01/17 02:13:56;;;;;;;1.95;1.38;;;2.80;1.00;;;;;;7360925;19;20022;-78
2023/01/17 02:16:49;;;;;;;3.42;1.50;;;2.80;1.00;;;;;;7360617;19;20011;-77
2023/01/17 02:19:49;;;;;;;6.50;1.60;;;2.80;1.00;;;;;;7360310;19;20014;-77
2023/01/17 02:22:43;;;;;;;2.47;1.50;;;2.80;1.00;;;;;;7361146;19;20010;-78
2023/01/17 02:25:34;;;;;;;3.22;1.70;;;2.80;1.00;;;;;;7361888;19;20013;-78
2023/01/17 02:28:24;;;;;;;3.00;1.40;;;2.90;1.00;;;;;;7359421;19;20015;-78
2023/01/17 02:31:01;;;;;;;2.20;1.50;;;2.90;1.00;;;;;;7360967;19;20094;-78
2023/01/17 02:33:35;;;;;;;3.42;1.65;;;2.90;1.00;;;;;;7383963;19;20025;-79
2023/01/17 02:36:12;;;;;;;2.53;1.52;;;2.90;1.00;;;;;;7364931;19;20014;-77
2023/01/17 02:38:52;;;;;;;3.38;1.70;;;2.80;1.00;;;;;;7359619;19;20073;-78
2023/01/17 02:41:27;;;;;;;3.33;1.80;;;2.80;1.00;;;;;;7359991;19;20018;-77
2023/01/17 02:43:57;;;;;;;3.28;1.95;;;2.80;1.00;;;;;;7361823;19;20018;-77
2023/01/17 02:46:30;;;;;;;3.10;1.92;;;2.80;1.00;;;;;;7360526;19;20015;-78
2023/01/17 02:49:01;;;;;;;3.42;2.00;;;2.80;1.00;;;;;;7359640;19;20011;-79
2023/01/17 02:51:47;;;;;;;2.13;1.35;;;2.80;1.00;;;;;;7381649;19;20021;-77
2023/01/17 02:54:39;;;;;;;3.15;1.60;;;2.80;1.00;;;;;;7363583;19;20620;-77
2023/01/17 02:57:26;;;;;;;2.05;1.50;;;2.80;1.00;;;;;;7359705;19;20364;-78
2023/01/17 03:00:01;;;;;;;3.70;1.80;;;2.80;1.00;;;;;;7361045;19;20014;-78
2023/01/17 03:02:40;;;;;;;3.80;1.70;;;2.90;1.00;;;;;;7361105;19;20573;-77
2023/01/17 03:05:15;;;;;;;3.38;1.35;;;2.80;1.00;;;;;;7364137;19;20121;-78
2023/01/17 03:07:47;;;;;;;;;;;2.90;1.00;;;;;;7359584;19;20078;-77
2023/01/17 03:10:20;;;;;;;4.13;2.05;;;2.80;1.00;;;;;;7359496;19;19957;-78
2023/01/17 03:12:50;;;;;;;2.33;1.58;;;2.80;1.00;;;;;;7360305;19;20011;-77
2023/01/17 03:15:19;;;;;;;4.10;1.80;;;2.80;1.00;;;;;;7379177;19;20493;-78
2023/01/17 03:17:56;;;;;;;3.10;1.50;;;2.80;1.00;;;;;;7359082;19;20549;-78
2023/01/17 03:20:26;;;;;;;1.98;1.45;;;2.80;1.00;;;;;;7357713;19;20011;-78
2023/01/17 03:22:56;;;;;;;1.55;1.40;;;2.70;1.00;;;;;;7360426;19;20808;-78
2023/01/17 03:25:26;;;;;;;3.53;1.50;;;2.80;1.00;;;;;;7359190;19;20082;-78
2023/01/17 03:27:55;;;;;;;1.98;1.27;;;2.80;1.00;;;;;;7358399;19;20086;-78
2023/01/17 03:30:25;;;;;;;2.75;1.42;;;2.70;1.00;;;;;;7381386;19;20017;-78
2023/01/17 03:32:58;;;;;;;2.70;1.35;;;2.80;1.00;;;;;;7360316;19;20030;-78
2023/01/17 03:35:28;;;;;;;1.70;1.23;;;2.70;1.00;;;;;;7357630;19;20036;-78
2023/01/17 03:37:59;;;;;;;1.95;1.17;;;2.70;1.00;;;;;;7359803;19;20007;-79
2023/01/17 03:40:28;;;;;;;1.30;1.10;;;2.70;1.00;;;;;;7364604;19;20011;-78
2023/01/17 03:42:58;;;;;;;1.80;1.10;;;2.70;1.00;;;;;;7366878;19;20004;-78
2023/01/17 03:45:30;;;;;;;2.00;1.30;;;2.70;1.00;;;;;;7388828;19;20616;-78
2023/01/17 03:48:05;;;;;;;2.78;1.30;;;2.70;1.00;;;;;;7367899;19;20019;-78
2023/01/17 03:50:36;;;;;;;2.33;1.42;;;2.70;1.00;;;;;;7368077;19;20474;-78
2023/01/17 03:53:06;;;;;;;2.90;1.33;;;2.80;1.00;;;;;;7366868;19;20025;-78
2023/01/17 03:55:35;;;;;;;4.88;1.33;;;2.70;1.00;;;;;;7364194;19;20043;-78
2023/01/17 03:58:05;;;;;;;2.17;1.10;;;2.80;1.00;;;;;;7364521;19;20022;-78
2023/01/17 04:00:35;;;;;;;2.55;1.33;;;2.70;1.00;;;;;;7386612;19;20037;-78
2023/01/17 04:03:12;;;;;;;2.50;1.50;;;2.60;3.80;;;;;;7368071;19;20015;-78
2023/01/17 04:05:42;;;;;;;2.90;1.30;;;2.50;6.90;;;;;;7364950;19;20014;-78
2023/01/17 04:08:12;;;;;;;2.47;1.67;;;2.50;7.50;;;;;;7367102;19;20010;-77
2023/01/17 04:10:42;;;;;;;2.30;1.40;;;2.40;9.40;;;;;;7366071;19;20350;-78
2023/01/17 04:13:12;;;;;;;3.60;1.50;;;2.40;10.90;;;;;;7365249;19;20031;-78
2023/01/17 04:15:47;;;;;;;2.47;1.60;;;2.30;10.80;;;;;;7362906;19;20050;-80
2023/01/17 04:18:23;;;;;;;2.55;1.83;;;2.30;11.10;;;;;;7385683;19;20031;-77
2023/01/17 04:20:53;;;;;;;3.83;1.50;;;2.20;10.80;;;;;;7368161;19;20014;-77
2023/01/17 04:23:25;;;;;;;2.42;1.50;;;2.20;10.80;;;;;;7365894;19;20097;-78
2023/01/17 04:25:58;;;;;;;3.17;1.60;;;2.20;10.80;;;;;;7367419;19;20116;-78
2023/01/17 04:28:27;;;;;;;2.40;1.60;;;2.20;10.80;;;;;;7365593;19;20015;-77
2023/01/17 04:31:00;;;;;;;3.25;1.65;;;2.20;7.80;;;;;;7368496;19;20040;-79
2023/01/17 04:33:33;;;;;;;2.03;1.27;;;2.20;5.00;;;;;;7388615;19;20014;-79
2023/01/17 04:36:03;;;;;;;1.50;1.10;;;2.20;3.60;;;;;;7361379;19;20022;-78
2023/01/17 04:38:34;;;;;;;2.55;1.60;;;2.10;3.50;;;;;;7363289;19;20045;-78
2023/01/17 04:41:04;;;;;;;2.22;1.55;;;2.00;3.20;;;;;;7365711;19;20014;-79
2023/01/17 04:43:33;;;;;;;2.30;1.52;;;1.90;3.90;;;;;;7365420;19;20014;-78
2023/01/17 04:46:04;;;;;;;2.22;1.70;;;1.90;5.40;;;;;;7363734;19;20025;-79
2023/01/17 04:48:37;;;;;;;2.80;1.50;;;1.90;5.60;;;;;;7384222;19;20034;-78
2023/01/17 04:51:08;;;;;;;3.90;1.40;;;2.00;4.40;;;;;;7366526;19;20489;-77
2023/01/17 04:53:38;;;;;;;2.50;1.52;;;2.00;2.60;;;;;;7366770;19;20066;-77
2023/01/17 04:56:08;;;;;;;2.40;1.40;;;2.00;1.00;;;;;;7365022;19;20021;-77
2023/01/17 04:58:38;;;;;;;2.25;1.20;;;2.10;1.00;;;;;;7364533;19;20022;-78
2023/01/17 05:01:09;;;;;;;2.70;1.35;;;2.10;1.00;;;;;;7366332;19;20014;-78
2023/01/17 05:03:42;;;;;;;2.47;1.10;;;2.20;1.00;;;;;;7366380;19;20542;-78
2023/01/17 05:06:15;;;;;;;1.35;0.95;;;2.20;1.00;;;;;;7384903;19;20021;-78
2023/01/17 05:08:44;;;;;;;1.05;0.85;;;2.20;1.00;;;;;;7362874;19;20014;-78
2023/01/17 05:11:14;;;;;;;3.88;1.33;;;2.20;1.00;;;;;;7363529;19;20078;-78
2023/01/17 05:13:44;;;;;;;1.70;1.15;;;2.10;1.00;;;;;;7364465;19;20561;-78
2023/01/17 05:16:14;;;;;;;1.63;1.30;;;2.00;1.00;;;;;;7362367;19;20007;-78
2023/01/17 05:18:46;;;;;;;4.15;1.10;;;1.90;1.00;;;;;;7362863;19;20025;-79
2023/01/17 05:21:17;;;;;;;2.33;0.90;;;1.90;1.00;;;;;;7388106;19;20025;-78
2023/01/17 05:23:49;;;;;;;1.27;0.80;;;1.80;1.00;;;;;;7365705;19;20011;-78
2023/01/17 05:26:19;;;;;;;2.13;1.00;;;1.90;1.00;;;;;;7362398;19;20118;-78
2023/01/17 05:28:49;;;;;;;2.88;1.35;;;1.90;1.00;;;;;;7362258;19;20014;-79
2023/01/17 05:31:19;;;;;;;2.92;1.60;;;1.80;1.00;;;;;;7365411;19;20018;-77
2023/01/17 05:33:51;;;;;;;1.55;0.90;;;1.70;1.00;;;;;;7365566;19;20050;-78
2023/01/17 05:36:21;;;;;;;2.40;1.10;;;1.50;1.00;;;;;;7382056;19;20018;-78
2023/01/17 05:38:51;;;;;;;2.45;1.38;;;1.50;1.00;;;;;;7361323;19;20026;-78
2023/01/17 05:41:21;;;;;;;2.83;1.40;;;1.40;1.40;;;;;;7361743;19;20014;-78
2023/01/17 05:43:51;;;;;;;2.15;1.30;;;1.30;2.40;;;;;;7362706;19;20513;-78
2023/01/17 05:46:20;;;;;;;2.42;1.40;;;1.40;3.10;;;;;;7361845;19;20027;-78
2023/01/17 05:48:53;;;;;;;3.17;1.88;;;1.30;3.30;;;;;;7360688;19;20015;-78
2023/01/17 05:51:23;;;;;;;2.30;1.38;;;1.20;4.10;;;;;;7386089;19;20022;-77
2023/01/17 05:53:53;;;;;;;3.53;1.85;;;1.20;4.70;;;;;;7364522;19;20022;-78
2023/01/17 05:56:22;;;;;;;3.05;1.50;;;1.10;5.50;;;;;;7361606;19;20346;-79
2023/01/17 05:58:52;;;;;;;3.85;1.48;;;1.10;6.50;;;;;;7361674;19;20014;-78
2023/01/17 06:01:23;;;;;;;4.40;1.60;;;1.00;5.60;;;;;;7362671;19;20013;-78
2023/01/17 06:03:56;;;;;;;2.95;1.77;;;1.10;5.20;;;;;;7362798;19;20619;-77
2023/01/17 06:06:26;;;;;;;3.00;1.92;;;1.00;4.30;;;;;;7382811;19;20562;-77
2023/01/17 06:08:56;;;;;;;4.50;2.40;;;1.10;4.10;;;;;;7360517;19;20358;-78
2023/01/17 06:11:25;;;;;;;5.50;2.47;;;1.00;4.70;;;;;;7361774;19;20010;-77
2023/01/17 06:13:55;;;;;;;4.40;2.05;;;1.00;5.20;;;;;;7362139;19;20017;-78
2023/01/17 06:16:25;;;;;;;4.22;2.20;;;1.10;5.90;;;;;;7360866;19;20641;-77
2023/01/17 06:18:58;;;;;;;6.50;2.42;;;1.00;5.90;;;;;;7363894;19;20026;-78
2023/01/17 06:21:27;;;;;;;5.93;3.45;;;1.00;6.40;;;;;;7386258;19;20661;-77
2023/01/17 06:23:57;;;;;;;5.82;2.92;;;0.90;7.00;;;;;;7363806;19;20007;-78
2023/01/17 06:26:27;;;;;;;7.60;2.70;;;0.90;6.40;;;;;;7359738;19;20006;-77
2023/01/17 06:28:57;;;;;;;5.45;3.00;;;0.80;6.40;;;;;;7361708;19;20094;-74
2023/01/17 06:31:27;;;;;;;6.10;3.03;;;0.80;6.30;;;;;;7362428;19;20031;-78
2023/01/17 06:34:03;;;;;;;6.53;2.88;;;0.80;6.30;;;;;;7362997;19;20023;-78
2023/01/17 06:36:34;;;;;;;7.70;2.95;;;0.70;6.10;;;;;;7382163;19;20010;-79
2023/01/17 06:39:04;;;;;;;5.50;2.78;;;0.70;5.00;;;;;;7357175;19;20014;-78
2023/01/17 06:41:34;;;;;;;6.50;3.10;;;0.80;4.00;;;;;;7360497;19;20020;-78
2023/01/17 06:44:04;;;;;;;5.25;3.30;;;0.80;3.70;;;;;;7361314;19;20078;-78
2023/01/17 06:46:33;;;;;;;6.88;3.90;;;0.80;3.60;;;;;;7359905;19;20493;-78
2023/01/17 06:49:06;;;;;;;9.45;3.83;;;0.80;3.40;;;;;;7360935;19;20438;-78
2023/01/17 06:51:36;;;;;;;8.43;3.63;;;0.90;2.70;;;;;;7384930;19;20032;-78
2023/01/17 06:54:06;;;;;;;7.05;4.32;;;0.90;2.50;;;;;;7363547;19;20026;-78
2023/01/17 06:56:36;;;;;;;8.93;4.30;;;0.90;2.70;;;;;;7358224;19;20074;-79
2023/01/17 06:59:06;;;;;;;7.50;4.03;;;0.80;2.60;;;;;;7358239;19;20070;-78
2023/01/17 07:01:36;;;;;;;8.63;5.07;;;0.70;3.50;;;;;;7360835;19;20011;-78
2023/01/17 07:04:09;;;;;;;9.00;4.22;;;0.70;4.40;;;;;;7361925;19;20014;-77
2023/01/17 07:06:39;;;;;;;9.82;4.40;;;0.60;4.80;;;;;;7361691;19;20031;-78
2023/01/17 07:09:08;;;;;;;9.35;3.83;;;0.70;5.50;;;;;;7378851;19;20074;-78
2023/01/17 07:11:38;;;;;;;6.75;2.80;;;0.60;4.80;;;;;;7358320;19;20114;-78
2023/01/17 07:14:14;;;;;;;10.15;3.92;;;0.70;5.20;;;;;;7365441;19;20019;-77
2023/01/17 07:16:44;;;;;;;12.02;3.97;;;0.80;4.10;;;;;;7366539;19;20020;-78
2023/01/17 07:19:17;;;;;;;7.18;3.40;;;0.90;3.20;;;;;;7365503;19;20049;-77
2023/01/17 07:21:47;;;;;;;5.50;2.80;;;1.00;2.80;;;;;;7369519;19;20014;-77
2023/01/17 07:24:17;;;;;;;6.20;3.00;;;1.00;3.00;;;;;;7391823;19;20024;-78
2023/01/17 07:26:49;;;;;;;5.80;3.05;;;1.10;2.20;;;;;;7365772;19;20049;-77
2023/01/17 07:29:19;;;;;;;7.35;2.63;;;1.20;2.30;;;;;;7364461;19;20031;-78
2023/01/17 07:31:50;;;;;;;3.92;2.65;;;1.20;1.20;;;;;;7367499;19;20628;-77
2023/01/17 07:34:23;;;;;;;4.68;2.25;;;1.30;1.00;;;;;;7368879;19;20018;-79
2023/01/17 07:36:53;;;;;;;7.20;3.08;;;1.30;1.00;;;;;;7363126;19;20486;-77
2023/01/17 07:39:23;;;;;;;8.15;2.72;;;1.30;1.00;;;;;;7384342;19;20014;-78
2023/01/17 07:41:53;;;;;;;6.95;3.03;;;1.40;1.00;;;;;;7365566;19;20011;-77
2023/01/17 07:44:23;;;;;;;4.50;2.63;;;1.50;1.00;;;;;;7365718;19;20018;-77
2023/01/17 07:46:55;;;;;;;7.90;3.20;;;1.60;1.00;;;;;;7368480;19;20596;-78
2023/01/17 07:49:27;;;;;;;6.95;3.45;;;1.70;1.00;;;;;;7364214;19;20074;-76
2023/01/17 07:51:58;;;;;;;7.68;3.40;;;1.50;1.00;;;;;;7367445;19;20019;-78
2023/01/17 07:54:28;;;;;;;13.48;3.40;;;1.50;1.00;;;;;;7390949;19;20022;-78
2023/01/17 07:56:57;;;;;;;6.47;3.05;;;1.40;1.00;;;;;;7363516;19;20018;-78
2023/01/17 07:59:27;;;;;;;8.35;3.42;;;1.20;1.00;;;;;;7362665;19;20074;-77
2023/01/17 08:01:57;;;;;;;5.55;3.15;;;1.20;2.90;;;;;;7365721;19;20014;-78
2023/01/17 08:04:34;;;;;;;5.15;2.65;;;1.10;4.40;;;;;;7368027;19;20561;-77
2023/01/17 08:07:03;;;;;;;6.03;3.20;;;1.10;4.30;;;;;;7364617;19;20057;-77
2023/01/17 08:09:33;;;;;;;7.43;3.22;;;1.10;4.50;;;;;;7386884;19;20098;-78
2023/01/17 08:12:03;;;;;;;8.00;3.83;;;1.00;5.00;;;;;;7367337;19;20031;-77
2023/01/17 08:14:33;;;;;;;6.28;3.40;;;1.10;5.00;;;;;;7363724;19;20018;-78
2023/01/17 08:17:06;;;;;;;8.75;3.70;;;1.10;5.00;;;;;;7362392;19;20014;-77
2023/01/17 08:19:39;;;;;;;5.78;3.05;;;1.20;6.20;;;;;;7363213;19;20015;-78
2023/01/17 08:22:10;;;;;;;7.57;3.22;;;1.10;5.60;;;;;;7368068;19;20042;-77
2023/01/17 08:24:40;;;;;;;4.85;3.17;;;1.10;5.60;;;;;;7363309;19;20015;-76
2023/01/17 08:27:10;;;;;;;8.18;3.28;;;1.10;5.90;;;;;;7384364;19;20010;-77
2023/01/17 08:29:45;;;;;;;5.38;3.47;;;1.20;6.60;;;;;;7361566;19;20141;-78
2023/01/17 08:32:15;;;;;;;5.32;3.90;;;1.30;6.60;;;;;;7363754;19;20454;-77
2023/01/17 08:34:48;;;;;;;6.22;3.78;;;1.30;6.60;;;;;;7364314;19;20014;-78
2023/01/17 08:37:18;;;;;;;5.72;3.30;;;1.50;6.70;;;;;;7363437;19;20074;-78
2023/01/17 08:39:47;;;;;;;6.38;3.45;;;1.60;3.40;;;;;;7362393;19;20022;-78
2023/01/17 08:42:17;;;;;;;7.32;3.47;;;1.60;1.30;;;;;;7388070;19;20011;-77
2023/01/17 08:44:47;;;;;;;9.00;3.90;;;1.60;1.00;;;;;;7363362;19;20093;-77
2023/01/17 08:47:17;;;;;;;7.03;3.88;;;1.60;1.00;;;;;;7363910;19;20015;-78
2023/01/17 08:49:51;;;;;;;5.00;3.55;;;1.70;1.00;;;;;;7361803;19;20014;-78
2023/01/17 08:52:21;;;;;;;12.30;5.35;;;1.80;1.00;;;;;;7362851;19;20034;-78
2023/01/17 08:54:52;;;;;;;10.05;4.53;;;1.90;1.00;;;;;;7362794;19;20098;-78
2023/01/17 08:57:22;;;;;;;8.07;3.95;;;1.90;1.00;;;;;;7382999;19;20377;-77
2023/01/17 08:59:52;;;;;;;7.85;4.65;;;2.00;1.00;;;;;;7360813;19;20014;-77
2023/01/17 09:02:25;;;;;;;6.28;3.78;;;2.00;1.00;;;;;;7364133;19;20037;-78
2023/01/17 09:04:59;;;;;;;8.45;4.25;;;2.00;1.00;;;;;;7363086;19;20015;-77
2023/01/17 09:07:29;;;;;;;12.25;5.15;;;2.10;1.00;;;;;;7366309;19;20078;-76
2023/01/17 09:09:59;;;;;;;12.73;6.82;;;2.20;1.00;;;;;;7387778;19;20482;-77
2023/01/17 09:12:33;;;;;;;11.82;5.25;;;2.30;1.00;;;;;;7355905;19;20002;-78
2023/01/17 09:15:03;;;;;;;13.05;4.28;;;2.40;1.00;;;;;;7385122;19;20011;-78
2023/01/17 09:17:33;;;;;;;12.23;8.35;;;2.60;1.00;;;;;;7361203;19;20035;-77
2023/01/17 09:20:07;;;;;;;12.00;4.75;;;2.70;1.00;;;;;;7360501;19;20848;-77
2023/01/17 09:22:37;;;;;;;12.52;4.72;;;2.80;1.00;;;;;;7362819;19;20031;-77
2023/01/17 09:25:09;;;;;;;9.48;4.53;;;2.80;1.00;;;;;;7384163;19;20049;-78
2023/01/17 09:27:38;;;;;;;7.63;4.20;;;3.10;1.00;;;;;;7361876;19;20079;-78
2023/01/17 09:30:10;;;;;;;7.75;4.20;;;3.30;1.00;;;;;;7359482;19;20010;-76
2023/01/17 09:32:40;;;;;;;6.35;3.78;;;3.40;1.00;;;;;;7363340;19;20011;-77
2023/01/17 09:35:12;;;;;;;6.63;3.85;;;3.50;1.00;;;;;;7361305;19;20640;-76
2023/01/17 09:37:42;;;;;;;8.70;4.05;;;3.50;1.00;;;;;;7361612;19;20034;-77
2023/01/17 09:40:16;;;;;;;8.15;4.95;;;3.40;1.00;;;;;;7384851;19;20395;-77
2023/01/17 09:42:52;;;;;;;9.20;3.33;;;3.50;1.00;;;;;;7362673;19;20019;-76
2023/01/17 09:45:22;;;;;;;8.45;3.38;;;3.50;1.00;;;;;;7360746;19;20010;-77
2023/01/17 09:47:55;;;;;;;4.82;3.10;;;3.60;1.00;;;;;;7361515;19;20021;-77
2023/01/17 09:50:32;;;;;;;12.70;5.13;;;3.60;1.00;;;;;;7360469;19;20013;-78
2023/01/17 09:53:07;;;;;;;10.27;4.50;;;3.50;1.00;;;;;;7361522;19;20054;-78
2023/01/17 09:55:43;;;;;;;14.48;3.90;;;3.40;1.00;;;;;;7361995;19;20037;-78
2023/01/17 09:58:17;;;;;;;6.00;2.90;;;3.40;1.00;;;;;;7380728;19;20063;-78
2023/01/17 10:00:57;;;;;;;6.35;3.03;;;3.50;1.00;;;;;;7362416;19;20542;-79
2023/01/17 10:03:56;;;;;;;5.85;3.10;;;3.60;1.00;;;;;;7363854;19;20553;-78
2023/01/17 10:06:46;;;;;;;7.68;2.92;;;3.60;1.00;;;;;;7361007;19;20015;-78
2023/01/17 10:09:36;;;;;;;7.57;3.72;;;3.50;1.00;;;;;;7358558;19;20091;-78
2023/01/17 10:12:20;;;;;;;6.18;2.70;;;3.50;1.00;;;;;;7360517;19;20007;-79
2023/01/17 10:15:13;;;;;;;4.50;3.22;;;3.50;1.00;;;;;;7361720;19;20027;-78
2023/01/17 10:17:53;;;;;;;4.72;2.50;;;3.60;1.00;;;;;;7359556;19;20086;-78
2023/01/17 10:20:43;;;;;;;5.80;3.40;;;3.60;1.00;;;;;;7358217;19;20070;-78
2023/01/17 10:23:43;;;;;;;4.55;2.70;;;3.70;1.00;;;;;;7361003;19;20106;-77
2023/01/17 10:26:17;;;;;;;7.45;2.67;;;3.70;1.00;;;;;;7359456;19;20010;-77
2023/01/17 10:28:50;;;;;;;5.60;2.28;;;3.70;1.00;;;;;;7359911;19;20066;-78
2023/01/17 10:31:24;;;;;;;6.72;2.47;;;3.80;1.00;;;;;;7361289;19;20023;-78
2023/01/17 10:33:55;;;;;;;5.10;2.53;;;3.90;1.00;;;;;;7382394;19;20030;-78
2023/01/17 10:36:27;;;;;;;4.60;1.98;;;3.90;1.00;;;;;;7359721;19;20026;-77
2023/01/17 10:39:03;;;;;;;7.82;2.70;;;3.90;1.00;;;;;;7358637;19;20011;-78
2023/01/17 10:41:38;;;;;;;6.07;2.30;;;4.00;1.00;;;;;;7360243;19;20011;-78
2023/01/17 10:44:13;;;;;;;4.70;2.60;;;4.00;1.00;;;;;;7361579;19;20471;-78
2023/01/17 10:46:48;;;;;;;6.88;2.53;;;4.00;1.00;;;;;;7360389;19;20478;-77
2023/01/17 10:49:21;;;;;;;5.22;2.30;;;4.20;1.00;;;;;;7359780;19;20492;-78
2023/01/17 10:52:02;;;;;;;5.10;2.40;;;4.30;1.00;;;;;;7382976;19;20018;-78
2023/01/17 10:54:50;;;;;;;6.45;3.15;;;4.40;1.00;;;;;;7364033;19;20127;-78
2023/01/17 10:57:23;;;;;;;3.72;2.22;;;4.50;1.00;;;;;;7360977;19;20081;-78
2023/01/17 10:59:54;;;;;;;4.53;1.55;;;4.60;1.00;;;;;;7359576;19;20014;-78
2023/01/17 11:02:27;;;;;;;3.90;1.73;;;4.50;1.00;;;;;;7361228;19;20046;-77
2023/01/17 11:04:58;;;;;;;4.20;2.47;;;4.60;1.00;;;;;;7359920;19;20021;-77
2023/01/17 11:07:30;;;;;;;5.55;2.28;;;4.60;1.00;;;;;;7362531;19;20090;-77
2023/01/17 11:10:02;;;;;;;4.53;2.05;;;4.70;1.00;;;;;;7382822;19;20033;-77
2023/01/17 11:12:35;;;;;;;1.58;0.93;;;4.80;1.00;;;;;;7364386;19;20466;-78
2023/01/17 11:15:18;;;;;;;3.17;1.10;;;4.80;1.00;;;;;;7361553;19;20010;-78
2023/01/17 11:17:52;;;;;;;2.67;1.00;;;4.80;1.00;;;;;;7361343;19;20082;-79
2023/01/17 11:20:29;;;;;;;6.43;1.15;;;4.80;1.00;;;;;;7358949;19;20014;-78
2023/01/17 11:23:07;;;;;;;3.88;1.33;;;4.70;1.00;;;;;;7359697;19;20508;-78
2023/01/17 11:25:40;;;;;;;3.97;1.85;;;4.60;1.00;;;;;;7360433;19;20091;-79
2023/01/17 11:28:25;;;;;;;4.18;1.48;;;4.80;1.00;;;;;;7382764;19;20010;-77
2023/01/17 11:31:00;;;;;;;4.97;1.95;;;4.70;1.00;;;;;;7361315;19;20026;-78
2023/01/17 11:33:43;;;;;;;5.07;1.52;;;4.80;1.00;;;;;;7360965;19;20808;-78
2023/01/17 11:36:21;;;;;;;3.15;2.00;;;4.90;1.00;;;;;;7361156;19;20010;-78
2023/01/17 11:39:01;;;;;;;3.83;1.55;;;5.00;1.00;;;;;;7359494;19;20029;-78
2023/01/17 11:41:39;;;;;;;8.40;2.63;;;5.00;1.00;;;;;;7359409;19;20007;-78
2023/01/17 11:44:24;;;;;;;1.38;0.70;;;5.00;1.00;;;;;;7360534;19;20035;-78
2023/01/17 11:47:19;;;;;;;2.55;1.08;;;5.10;1.00;;;;;;7359827;19;20010;-79
2023/01/17 11:49:50;;;;;;;2.28;1.00;;;5.10;1.00;;;;;;7358936;19;20024;-78
2023/01/17 11:52:25;;;;;;;1.08;0.80;;;5.00;1.00;;;;;;7359682;19;20021;-78
2023/01/17 11:54:56;;;;;;;1.80;0.68;;;4.80;1.00;;;;;;7380891;19;20014;-79
2023/01/17 11:57:32;;;;;;;1.90;1.00;;;4.80;1.00;;;;;;7358765;19;20370;-79
2023/01/17 12:00:18;;;;;;;2.55;1.00;;;4.80;1.00;;;;;;7359963;19;20042;-78
2023/01/17 12:03:22;;;;;;;3.67;2.40;;;4.80;1.00;;;;;;7366661;19;20122;-78
2023/01/17 12:06:02;;;;;;;4.60;1.42;;;4.90;1.00;;;;;;7361567;19;20010;-78
2023/01/17 12:08:50;;;;;;;2.13;0.82;;;4.90;1.00;;;;;;7362438;19;20565;-77
2023/01/17 12:11:30;;;;;;;3.88;2.17;;;4.90;1.00;;;;;;7366588;19;20006;-78
2023/01/17 12:14:09;;;;;;;4.93;3.20;;;5.00;1.00;;;;;;7353203;19;20011;-78
2023/01/17 12:16:52;;;;;;;4.18;1.65;;;5.10;1.00;;;;;;7367547;19;20019;-77
2023/01/17 12:19:36;;;;;;;4.55;0.90;;;5.00;1.00;;;;;;7364428;19;20082;-77
2023/01/17 12:22:23;;;;;;;1.73;1.33;;;4.90;1.00;;;;;;7389695;19;20055;-78
2023/01/17 12:25:13;;;;;;;2.20;1.15;;;5.00;1.00;;;;;;7367247;19;20029;-78
2023/01/17 12:27:54;;;;;;;1.67;0.88;;;5.00;1.00;;;;;;7367613;19;20015;-79
2023/01/17 12:30:37;;;;;;;3.55;2.08;;;4.80;1.00;;;;;;7361397;19;20494;-79
2023/01/17 12:33:20;;;;;;;3.38;1.50;;;4.80;1.00;;;;;;7365234;19;20014;-79
2023/01/17 12:35:54;;;;;;;5.90;1.90;;;4.80;1.00;;;;;;7365098;19;20035;-78
2023/01/17 12:38:30;;;;;;;2.35;1.33;;;4.70;1.00;;;;;;7367857;19;20006;-79
2023/01/17 12:41:08;;;;;;;3.00;0.95;;;4.70;1.00;;;;;;7366185;19;20632;-79
2023/01/17 12:43:41;;;;;;;4.47;0.80;;;4.70;1.00;;;;;;7366509;19;20010;-79
2023/01/17 12:46:22;;;;;;;2.88;1.02;;;4.70;1.00;;;;;;7390650;19;20015;-79
2023/01/17 12:48:55;;;;;;;1.75;1.33;;;4.80;1.00;;;;;;7362783;19;20082;-78
2023/01/17 12:51:29;;;;;;;2.90;1.15;;;4.80;1.00;;;;;;7366303;19;20021;-79
2023/01/17 12:54:04;;;;;;;3.33;0.85;;;4.90;1.00;;;;;;7362265;19;20022;-79
2023/01/17 12:56:37;;;;;;;1.83;0.82;;;4.80;1.00;;;;;;7365532;19;20014;-77
2023/01/17 12:59:23;;;;;;;3.08;1.10;;;4.90;1.00;;;;;;7361497;19;20086;-79
2023/01/17 13:02:00;;;;;;;2.17;0.50;;;5.00;1.00;;;;;;7361875;19;20018;-77
2023/01/17 13:04:37;;;;;;;1.83;0.70;;;5.00;1.00;;;;;;7365744;19;20352;-78
2023/01/17 13:07:34;;;;;;;1.50;0.75;;;5.00;1.00;;;;;;7365608;19;20011;-78
2023/01/17 13:10:16;;;;;;;1.75;0.80;;;4.90;1.00;;;;;;7354847;19;20010;-77
2023/01/17 13:12:46;;;;;;;2.25;0.52;;;5.00;1.00;;;;;;7359831;19;20010;-78
2023/01/17 13:15:19;;;;;;;2.70;1.20;;;4.90;1.00;;;;;;7364753;19;20030;-78
2023/01/17 13:17:54;;;;;;;1.55;0.73;;;5.00;1.00;;;;;;7362120;19;20032;-77
2023/01/17 13:20:34;;;;;;;3.90;1.55;;;5.00;1.00;;;;;;7358844;19;20481;-76
2023/01/17 13:23:12;;;;;;;1.75;0.80;;;5.00;1.00;;;;;;7362901;19;20466;-76
2023/01/17 13:25:49;;;;;;;2.90;1.20;;;5.00;1.00;;;;;;7361993;19;20037;-77
2023/01/17 13:28:27;;;;;;;2.90;0.90;;;5.00;1.00;;;;;;7362075;19;20515;-77
2023/01/17 13:31:28;;;;;;;1.23;0.73;;;5.00;1.00;;;;;;7385777;19;20018;-76
2023/01/17 13:34:28;;;;;;;2.45;0.90;;;5.00;1.00;;;;;;7363862;19;20014;-76
2023/01/17 13:37:17;;;;;;;2.10;1.00;;;5.10;1.00;;;;;;7362466;19;20007;-77
2023/01/17 13:40:04;;;;;;;1.75;0.70;;;5.20;1.00;;;;;;7361727;19;20025;-77
2023/01/17 13:42:48;;;;;;;3.08;0.73;;;5.10;1.00;;;;;;7360617;19;20090;-77
2023/01/17 13:45:22;;;;;;;1.83;0.88;;;5.00;1.00;;;;;;7365778;19;20011;-76
2023/01/17 13:47:52;;;;;;;3.42;0.93;;;5.00;1.00;;;;;;7362071;19;20018;-77
2023/01/17 13:50:51;;;;;;;2.55;0.77;;;5.00;1.00;;;;;;7361136;19;20013;-77
2023/01/17 13:53:57;;;;;;;3.08;1.15;;;4.90;1.00;;;;;;7361687;19;20011;-78
2023/01/17 13:56:35;;;;;;;4.45;1.45;;;4.90;1.00;;;;;;7363698;19;20014;-76
2023/01/17 13:59:24;;;;;;;1.88;0.80;;;4.80;1.00;;;;;;7361588;19;20011;-77
2023/01/17 14:01:55;;;;;;;4.15;1.20;;;4.90;1.00;;;;;;7362123;19;20052;-76
2023/01/17 14:04:26;;;;;;;2.67;0.98;;;4.90;1.00;;;;;;7364350;19;20007;-76
2023/01/17 14:07:02;;;;;;;4.43;1.50;;;4.80;1.00;;;;;;7376712;19;20646;-76
2023/01/17 14:09:42;;;;;;;2.47;0.90;;;4.80;1.00;;;;;;7362160;19;20015;-76
2023/01/17 14:12:36;;;;;;;2.50;1.48;;;4.80;1.00;;;;;;7361013;19;20054;-76
2023/01/17 14:15:21;;;;;;;2.50;1.15;;;4.80;1.00;;;;;;7361543;19;20018;-77
2023/01/17 14:17:59;;;;;;;1.90;0.95;;;4.80;1.00;;;;;;7361077;19;20021;-77
2023/01/17 14:20:52;;;;;;;4.57;1.05;;;4.80;1.00;;;;;;7359508;19;20007;-77
2023/01/17 14:23:44;;;;;;;2.95;1.05;;;4.80;1.00;;;;;;7358638;19;20139;-78
2023/01/17 14:26:38;;;;;;;3.47;0.85;;;4.70;1.00;;;;;;7363750;19;20017;-76
2023/01/17 14:29:38;;;;;;;1.90;1.08;;;4.60;1.00;;;;;;7362451;19;20021;-78
2023/01/17 14:32:12;;;;;;;2.72;0.93;;;4.60;1.00;;;;;;7364539;19;20013;-77
2023/01/17 14:34:44;;;;;;;3.40;1.05;;;4.60;1.00;;;;;;7361878;19;20085;-77
2023/01/17 14:37:19;;;;;;;3.88;1.35;;;4.60;1.00;;;;;;7385650;19;20014;-77
2023/01/17 14:39:52;;;;;;;2.85;1.20;;;4.60;1.00;;;;;;7361712;19;20661;-78
2023/01/17 14:42:25;;;;;;;3.43;1.33;;;4.60;1.00;;;;;;7359535;19;20011;-76
2023/01/17 14:45:01;;;;;;;4.43;1.48;;;4.60;1.00;;;;;;7360134;19;20028;-77
2023/01/17 14:47:35;;;;;;;4.18;1.48;;;4.60;1.00;;;;;;7361784;19;20026;-77
2023/01/17 14:50:21;;;;;;;3.15;1.70;;;4.60;1.00;;;;;;7360065;19;20113;-76
2023/01/17 14:53:08;;;;;;;3.03;1.48;;;4.50;1.00;;;;;;7360624;19;20501;-76
2023/01/17 14:55:52;;;;;;;3.00;1.50;;;4.50;1.00;;;;;;7362627;19;20011;-77
2023/01/17 14:58:23;;;;;;;4.65;2.10;;;4.40;1.00;;;;;;7361498;19;20022;-78
2023/01/17 15:00:57;;;;;;;6.28;1.40;;;4.40;1.00;;;;;;7383058;19;20010;-78
2023/01/17 15:03:28;;;;;;;4.50;2.10;;;4.40;1.00;;;;;;7359978;19;20081;-79
2023/01/17 15:06:04;;;;;;;10.05;4.07;;;4.40;1.00;;;;;;7361747;19;20133;-78